Allenville, Missouri
Current Conditions -  °F | °C
As of 11:53 AM on Thursday 29 Jan 2015 (Local Time) from KCGI Reporting Station
Overcast Overcast  
Wind Chill: 38°   Ceiling: 2800
Heat Index: 45°   Visibility: 10mi
Dew Point: 35°   Wind: 16mph
Humidity: 68%   Direction: 330°NNW
Pressure: 30.15"   Gusts: NA
Location:  37.1651°N, 89.623°W
Report Text: KCGI 291753Z 33014KT 10SM OVC028 07/02 A3015 RMK AO2 SLP211 6//// T00720017 10106 20072
Loading
Personal Weather Stations






























Interactive Weather Map New forecast layout! Learn more

10-Day Weather Forecast

Advertisements
Track Severe Weather on mobile